sensor_id;sensor_type;location;lat;lon;timestamp;P1;P2;P0
77516;PMS7003;68414;53.946;27.634;2023-04-23T00:00:55;40.666668;34.750000;22.750000
77516;PMS7003;68414;53.946;27.634;2023-04-23T00:01:55;36.366665;32.516666;21.716667
77516;PMS7003;68414;53.946;27.634;2023-04-23T00:02:55;36.616665;32.733334;21.750000
77516;PMS7003;68414;53.946;27.634;2023-04-23T00:03:56;34.583332;31.750000;21.233334
77516;PMS7003;68414;53.946;27.634;2023-04-23T00:04:55;36.900002;32.966667;22.083334
77516;PMS7003;68414;53.946;27.634;2023-04-23T00:05:55;40.133335;33.700001;22.983334
77516;PMS7003;68414;53.946;27.634;2023-04-23T00:06:54;39.133335;34.366665;22.900000
77516;PMS7003;68414;53.946;27.634;2023-04-23T00:07:53;38.549999;33.883335;22.483334
77516;PMS7003;68414;53.946;27.634;2023-04-23T00:08:53;36.549999;32.116665;22.083334
77516;PMS7003;68414;53.946;27.634;2023-04-23T00:09:55;35.416668;31.866667;21.333334
77516;PMS7003;68414;53.946;27.634;2023-04-23T00:10:54;34.483334;31.916666;21.166666
77516;PMS7003;68414;53.946;27.634;2023-04-23T00:11:54;31.716667;30.283333;21.433332
77516;PMS7003;68414;53.946;27.634;2023-04-23T00:12:54;35.533333;32.416668;22.100000
77516;PMS7003;68414;53.946;27.634;2023-04-23T00:13:54;33.700001;31.216667;21.600000
77516;PMS7003;68414;53.946;27.634;2023-04-23T00:14:56;34.033333;30.566668;20.850000
77516;PMS7003;68414;53.946;27.634;2023-04-23T00:15:54;35.250000;31.933332;21.733334
77516;PMS7003;68414;53.946;27.634;2023-04-23T00:16:54;35.500000;31.516666;20.883333
77516;PMS7003;68414;53.946;27.634;2023-04-23T00:17:53;34.233334;31.400000;21.900000
77516;PMS7003;68414;53.946;27.634;2023-04-23T00:18:53;36.383335;31.799999;21.000000
77516;PMS7003;68414;53.946;27.634;2023-04-23T00:19:53;34.983334;31.066668;20.600000
77516;PMS7003;68414;53.946;27.634;2023-04-23T00:20:53;35.466667;31.950001;21.466667
77516;PMS7003;68414;53.946;27.634;2023-04-23T00:21:53;34.750000;30.833334;21.833334
77516;PMS7003;68414;53.946;27.634;2023-04-23T00:22:53;35.383335;32.799999;22.033333
77516;PMS7003;68414;53.946;27.634;2023-04-23T00:23:53;37.650002;33.833332;22.433332
77516;PMS7003;68414;53.946;27.634;2023-04-23T00:24:53;33.416668;31.150000;20.983334
77516;PMS7003;68414;53.946;27.634;2023-04-23T00:25:53;35.150002;31.650000;21.333334
77516;PMS7003;68414;53.946;27.634;2023-04-23T00:26:53;33.866665;31.816668;21.433332
77516;PMS7003;68414;53.946;27.634;2023-04-23T00:27:53;34.133335;31.250000;21.133333
77516;PMS7003;68414;53.946;27.634;2023-04-23T00:28:53;32.416668;30.483334;20.600000
77516;PMS7003;68414;53.946;27.634;2023-04-23T00:29:53;37.150002;32.816666;22.016666
77516;PMS7003;68414;53.946;27.634;2023-04-23T00:30:53;37.049999;32.816666;22.166666
77516;PMS7003;68414;53.946;27.634;2023-04-23T00:31:53;37.500000;32.483334;21.216667
77516;PMS7003;68414;53.946;27.634;2023-04-23T00:32:53;33.983334;30.900000;21.616667
77516;PMS7003;68414;53.946;27.634;2023-04-23T00:33:53;36.049999;32.750000;21.616667
77516;PMS7003;68414;53.946;27.634;2023-04-23T00:34:53;37.000000;32.866665;22.266666
77516;PMS7003;68414;53.946;27.634;2023-04-23T00:35:53;38.766666;33.583332;22.299999
77516;PMS7003;68414;53.946;27.634;2023-04-23T00:36:54;35.566666;31.633333;21.333334
77516;PMS7003;68414;53.946;27.634;2023-04-23T00:37:53;38.666668;34.250000;23.100000
77516;PMS7003;68414;53.946;27.634;2023-04-23T00:38:53;40.216667;35.566666;24.049999
77516;PMS7003;68414;53.946;27.634;2023-04-23T00:39:53;40.349998;34.583332;23.500000
77516;PMS7003;68414;53.946;27.634;2023-04-23T00:40:53;39.783333;34.549999;23.466667
77516;PMS7003;68414;53.946;27.634;2023-04-23T00:41:53;39.133335;34.416668;23.166666
77516;PMS7003;68414;53.946;27.634;2023-04-23T00:42:53;39.533333;34.833332;22.500000
77516;PMS7003;68414;53.946;27.634;2023-04-23T00:43:54;38.616665;34.066666;22.566668
77516;PMS7003;68414;53.946;27.634;2023-04-23T00:44:53;37.650002;32.983334;21.900000
77516;PMS7003;68414;53.946;27.634;2023-04-23T00:45:53;39.000000;34.650002;23.100000
77516;PMS7003;68414;53.946;27.634;2023-04-23T00:46:54;39.783333;34.033333;22.983334
77516;PMS7003;68414;53.946;27.634;2023-04-23T00:47:55;38.349998;33.333332;22.616667
77516;PMS7003;68414;53.946;27.634;2023-04-23T00:48:53;36.033333;32.283333;22.750000
77516;PMS7003;68414;53.946;27.634;2023-04-23T00:49:53;35.500000;32.333332;22.100000
77516;PMS7003;68414;53.946;27.634;2023-04-23T00:51:53;32.000000;29.766666;20.600000
77516;PMS7003;68414;53.946;27.634;2023-04-23T00:52:53;32.633335;30.233334;21.466667
77516;PMS7003;68414;53.946;27.634;2023-04-23T00:53:54;34.616665;31.700001;21.866667
77516;PMS7003;68414;53.946;27.634;2023-04-23T00:54:54;37.683334;33.450001;23.083334
77516;PMS7003;68414;53.946;27.634;2023-04-23T00:55:53;33.483334;30.533333;21.000000
77516;PMS7003;68414;53.946;27.634;2023-04-23T00:56:54;33.166668;30.533333;20.616667
77516;PMS7003;68414;53.946;27.634;2023-04-23T00:57:54;31.083334;29.150000;19.850000
77516;PMS7003;68414;53.946;27.634;2023-04-23T00:58:53;31.100000;29.766666;20.683332
77516;PMS7003;68414;53.946;27.634;2023-04-23T00:59:53;30.666666;28.833334;20.233334
77516;PMS7003;68414;53.946;27.634;2023-04-23T01:00:53;30.983334;28.816668;20.133333
77516;PMS7003;68414;53.946;27.634;2023-04-23T01:01:54;33.183334;30.166666;20.049999
77516;PMS7003;68414;53.946;27.634;2023-04-23T01:02:53;32.166668;30.250000;20.250000
77516;PMS7003;68414;53.946;27.634;2023-04-23T01:03:53;32.433334;29.833334;21.100000
77516;PMS7003;68414;53.946;27.634;2023-04-23T01:04:54;32.816666;30.400000;20.200001
77516;PMS7003;68414;53.946;27.634;2023-04-23T01:05:53;32.683334;30.333334;21.083334
77516;PMS7003;68414;53.946;27.634;2023-04-23T01:06:54;34.866665;30.750000;21.000000
77516;PMS7003;68414;53.946;27.634;2023-04-23T01:07:53;33.166668;30.850000;22.250000
77516;PMS7003;68414;53.946;27.634;2023-04-23T01:08:53;33.816666;30.900000;21.316668
77516;PMS7003;68414;53.946;27.634;2023-04-23T01:09:54;35.466667;32.033333;22.133333
77516;PMS7003;68414;53.946;27.634;2023-04-23T01:10:53;36.083332;32.049999;22.283333
77516;PMS7003;68414;53.946;27.634;2023-04-23T01:11:54;36.766666;32.783333;22.700001
77516;PMS7003;68414;53.946;27.634;2023-04-23T01:12:54;40.066666;33.866665;23.100000
77516;PMS7003;68414;53.946;27.634;2023-04-23T01:13:55;40.216667;34.433334;22.716667
77516;PMS7003;68414;53.946;27.634;2023-04-23T01:14:53;36.066666;32.349998;21.566668
77516;PMS7003;68414;53.946;27.634;2023-04-23T01:15:53;32.283333;29.933332;21.483334
77516;PMS7003;68414;53.946;27.634;2023-04-23T01:16:53;32.316666;30.000000;20.883333
77516;PMS7003;68414;53.946;27.634;2023-04-23T01:17:53;34.366665;31.716667;21.766666
77516;PMS7003;68414;53.946;27.634;2023-04-23T01:18:53;31.950001;29.600000;20.283333
77516;PMS7003;68414;53.946;27.634;2023-04-23T01:19:53;35.299999;31.516666;21.883333
77516;PMS7003;68414;53.946;27.634;2023-04-23T01:20:53;36.950001;32.716667;21.766666
77516;PMS7003;68414;53.946;27.634;2023-04-23T01:21:53;34.166668;30.583334;20.500000
77516;PMS7003;68414;53.946;27.634;2023-04-23T01:22:53;30.633333;28.400000;19.400000
77516;PMS7003;68414;53.946;27.634;2023-04-23T01:23:53;32.366665;29.000000;20.000000
77516;PMS7003;68414;53.946;27.634;2023-04-23T01:24:53;32.083332;30.083334;19.933332
77516;PMS7003;68414;53.946;27.634;2023-04-23T01:25:53;30.500000;29.000000;19.850000
77516;PMS7003;68414;53.946;27.634;2023-04-23T01:26:53;34.783333;31.566668;21.383333
77516;PMS7003;68414;53.946;27.634;2023-04-23T01:27:53;31.983334;29.966667;20.549999
77516;PMS7003;68414;53.946;27.634;2023-04-23T01:28:53;29.766666;28.866667;19.783333
77516;PMS7003;68414;53.946;27.634;2023-04-23T01:29:53;30.483334;29.600000;19.750000
77516;PMS7003;68414;53.946;27.634;2023-04-23T01:30:54;30.383333;28.750000;19.583334
77516;PMS7003;68414;53.946;27.634;2023-04-23T01:31:53;31.183332;29.683332;20.400000
77516;PMS7003;68414;53.946;27.634;2023-04-23T01:32:54;34.250000;30.900000;20.533333
77516;PMS7003;68414;53.946;27.634;2023-04-23T01:33:53;32.983334;29.233334;19.566668
77516;PMS7003;68414;53.946;27.634;2023-04-23T01:34:55;31.666666;29.600000;19.766666
77516;PMS7003;68414;53.946;27.634;2023-04-23T01:35:54;31.533333;29.366667;20.100000
77516;PMS7003;68414;53.946;27.634;2023-04-23T01:36:53;28.033333;26.483334;19.216667
77516;PMS7003;68414;53.946;27.634;2023-04-23T01:37:53;33.349998;30.700001;20.350000
77516;PMS7003;68414;53.946;27.634;2023-04-23T01:38:53;30.816668;29.000000;19.516666
77516;PMS7003;68414;53.946;27.634;2023-04-23T01:39:53;29.116667;27.900000;19.549999
77516;PMS7003;68414;53.946;27.634;2023-04-23T01:40:53;34.266666;31.616667;21.483334
77516;PMS7003;68414;53.946;27.634;2023-04-23T01:41:53;32.033333;30.383333;20.750000
77516;PMS7003;68414;53.946;27.634;2023-04-23T01:42:53;37.766666;32.883335;22.049999
77516;PMS7003;68414;53.946;27.634;2023-04-23T01:43:54;36.916668;32.533333;21.966667
77516;PMS7003;68414;53.946;27.634;2023-04-23T01:44:53;33.083332;31.450001;21.083334
77516;PMS7003;68414;53.946;27.634;2023-04-23T01:45:53;33.133335;30.883333;20.833334
77516;PMS7003;68414;53.946;27.634;2023-04-23T01:46:53;31.533333;30.000000;21.033333
77516;PMS7003;68414;53.946;27.634;2023-04-23T01:47:53;30.983334;29.466667;20.883333
77516;PMS7003;68414;53.946;27.634;2023-04-23T01:48:53;32.366665;30.266666;20.650000
77516;PMS7003;68414;53.946;27.634;2023-04-23T01:49:54;32.633335;30.033333;19.983334
77516;PMS7003;68414;53.946;27.634;2023-04-23T01:50:53;31.366667;29.283333;20.700001
77516;PMS7003;68414;53.946;27.634;2023-04-23T01:51:53;30.916666;29.250000;20.233334
77516;PMS7003;68414;53.946;27.634;2023-04-23T01:52:53;31.416666;29.883333;20.383333
77516;PMS7003;68414;53.946;27.634;2023-04-23T01:53:53;30.266666;28.983334;19.600000
77516;PMS7003;68414;53.946;27.634;2023-04-23T01:54:53;32.516666;30.216667;20.216667
77516;PMS7003;68414;53.946;27.634;2023-04-23T01:55:54;32.066666;29.583334;20.299999
77516;PMS7003;68414;53.946;27.634;2023-04-23T01:56:53;31.616667;29.683332;20.783333
77516;PMS7003;68414;53.946;27.634;2023-04-23T01:57:53;38.816666;32.883335;22.133333
77516;PMS7003;68414;53.946;27.634;2023-04-23T01:58:53;32.799999;30.616667;20.799999
77516;PMS7003;68414;53.946;27.634;2023-04-23T02:00:53;31.266666;29.916666;21.133333
77516;PMS7003;68414;53.946;27.634;2023-04-23T02:01:53;27.750000;26.950001;20.033333
77516;PMS7003;68414;53.946;27.634;2023-04-23T02:02:53;31.566668;29.916666;20.100000
77516;PMS7003;68414;53.946;27.634;2023-04-23T02:03:53;30.733334;29.416666;19.633333
77516;PMS7003;68414;53.946;27.634;2023-04-23T02:04:53;30.850000;29.633333;20.016666
77516;PMS7003;68414;53.946;27.634;2023-04-23T02:05:54;29.583334;27.866667;19.533333
77516;PMS7003;68414;53.946;27.634;2023-04-23T02:06:53;30.416666;29.333334;20.150000
77516;PMS7003;68414;53.946;27.634;2023-04-23T02:07:53;32.099998;30.100000;20.366667
77516;PMS7003;68414;53.946;27.634;2023-04-23T02:08:53;30.916666;29.833334;20.750000
77516;PMS7003;68414;53.946;27.634;2023-04-23T02:09:53;33.150002;29.616667;20.600000
77516;PMS7003;68414;53.946;27.634;2023-04-23T02:10:53;30.933332;30.299999;19.883333
77516;PMS7003;68414;53.946;27.634;2023-04-23T02:11:53;30.200001;29.066668;19.583334
77516;PMS7003;68414;53.946;27.634;2023-04-23T02:12:53;31.350000;30.100000;20.066668
77516;PMS7003;68414;53.946;27.634;2023-04-23T02:13:53;32.150002;30.816668;20.566668
77516;PMS7003;68414;53.946;27.634;2023-04-23T02:14:53;33.516666;30.850000;20.916666
77516;PMS7003;68414;53.946;27.634;2023-04-23T02:15:53;38.066666;32.950001;22.433332
77516;PMS7003;68414;53.946;27.634;2023-04-23T02:16:53;37.900002;33.349998;22.233334
77516;PMS7003;68414;53.946;27.634;2023-04-23T02:17:53;37.750000;32.633335;22.549999
77516;PMS7003;68414;53.946;27.634;2023-04-23T02:18:54;34.950001;31.650000;21.766666
77516;PMS7003;68414;53.946;27.634;2023-04-23T02:19:53;34.549999;31.683332;22.433332
77516;PMS7003;68414;53.946;27.634;2023-04-23T02:20:53;35.700001;32.266666;22.066668
77516;PMS7003;68414;53.946;27.634;2023-04-23T02:21:53;36.716667;32.599998;21.316668
77516;PMS7003;68414;53.946;27.634;2023-04-23T02:22:53;35.083332;31.533333;21.850000
77516;PMS7003;68414;53.946;27.634;2023-04-23T02:23:53;29.816668;28.533333;19.883333
77516;PMS7003;68414;53.946;27.634;2023-04-23T02:24:53;33.033333;30.683332;20.933332
77516;PMS7003;68414;53.946;27.634;2023-04-23T02:25:53;31.866667;29.833334;20.416666
77516;PMS7003;68414;53.946;27.634;2023-04-23T02:26:53;34.383335;31.716667;21.233334
77516;PMS7003;68414;53.946;27.634;2023-04-23T02:27:53;38.016666;33.483334;21.850000
77516;PMS7003;68414;53.946;27.634;2023-04-23T02:28:53;34.150002;31.333334;20.666666
77516;PMS7003;68414;53.946;27.634;2023-04-23T02:29:53;34.599998;31.216667;21.750000
77516;PMS7003;68414;53.946;27.634;2023-04-23T02:30:53;33.599998;30.816668;21.533333
77516;PMS7003;68414;53.946;27.634;2023-04-23T02:31:53;33.666668;31.483334;21.633333
77516;PMS7003;68414;53.946;27.634;2023-04-23T02:32:53;33.549999;30.783333;21.100000
77516;PMS7003;68414;53.946;27.634;2023-04-23T02:33:53;32.466667;30.100000;20.466667
77516;PMS7003;68414;53.946;27.634;2023-04-23T02:34:53;32.349998;30.183332;20.516666
77516;PMS7003;68414;53.946;27.634;2023-04-23T02:35:53;36.083332;32.816666;22.466667
77516;PMS7003;68414;53.946;27.634;2023-04-23T02:36:53;36.366665;32.416668;21.933332
77516;PMS7003;68414;53.946;27.634;2023-04-23T02:37:53;34.966667;31.916666;21.716667
77516;PMS7003;68414;53.946;27.634;2023-04-23T02:38:53;37.116665;33.099998;22.266666
77516;PMS7003;68414;53.946;27.634;2023-04-23T02:39:53;32.000000;30.000000;20.883333
77516;PMS7003;68414;53.946;27.634;2023-04-23T02:40:53;37.333332;33.166668;22.633333
77516;PMS7003;68414;53.946;27.634;2023-04-23T02:41:53;37.016666;33.349998;22.583334
77516;PMS7003;68414;53.946;27.634;2023-04-23T02:42:53;33.183334;30.950001;21.616667
77516;PMS7003;68414;53.946;27.634;2023-04-23T02:43:53;37.750000;33.283333;22.333334
77516;PMS7003;68414;53.946;27.634;2023-04-23T02:44:53;38.966667;34.433334;23.366667
77516;PMS7003;68414;53.946;27.634;2023-04-23T02:45:53;40.716667;35.099998;23.666666
77516;PMS7003;68414;53.946;27.634;2023-04-23T02:46:53;42.500000;36.250000;23.816668
77516;PMS7003;68414;53.946;27.634;2023-04-23T02:47:53;43.500000;36.583332;24.133333
77516;PMS7003;68414;53.946;27.634;2023-04-23T02:48:53;40.049999;35.016666;23.250000
77516;PMS7003;68414;53.946;27.634;2023-04-23T02:49:53;39.599998;33.916668;23.233334
77516;PMS7003;68414;53.946;27.634;2023-04-23T02:50:53;38.500000;33.916668;23.016666
77516;PMS7003;68414;53.946;27.634;2023-04-23T02:51:53;40.799999;35.599998;24.283333
77516;PMS7003;68414;53.946;27.634;2023-04-23T02:52:53;41.183334;35.616665;23.716667
77516;PMS7003;68414;53.946;27.634;2023-04-23T02:53:53;38.016666;34.200001;22.900000
77516;PMS7003;68414;53.946;27.634;2023-04-23T02:54:53;36.816666;32.900002;22.116667
77516;PMS7003;68414;53.946;27.634;2023-04-23T02:55:53;38.383335;33.166668;23.266666
77516;PMS7003;68414;53.946;27.634;2023-04-23T02:56:53;34.816666;31.966667;21.916666
77516;PMS7003;68414;53.946;27.634;2023-04-23T02:57:53;36.533333;33.066666;22.316668
77516;PMS7003;68414;53.946;27.634;2023-04-23T02:58:53;41.049999;34.983334;23.166666
77516;PMS7003;68414;53.946;27.634;2023-04-23T02:59:53;40.799999;34.966667;22.933332
77516;PMS7003;68414;53.946;27.634;2023-04-23T03:00:53;40.283333;34.583332;23.533333
77516;PMS7003;68414;53.946;27.634;2023-04-23T03:01:53;40.333332;34.799999;23.316668
77516;PMS7003;68414;53.946;27.634;2023-04-23T03:02:53;42.283333;35.633335;23.450001
77516;PMS7003;68414;53.946;27.634;2023-04-23T03:03:53;38.183334;33.016666;22.366667
77516;PMS7003;68414;53.946;27.634;2023-04-23T03:04:53;40.599998;34.516666;23.400000
77516;PMS7003;68414;53.946;27.634;2023-04-23T03:05:53;41.383335;35.349998;23.283333
77516;PMS7003;68414;53.946;27.634;2023-04-23T03:06:53;37.883335;33.299999;23.116667
77516;PMS7003;68414;53.946;27.634;2023-04-23T03:07:53;41.383335;34.466667;23.250000
77516;PMS7003;68414;53.946;27.634;2023-04-23T03:08:53;36.599998;32.533333;22.116667
77516;PMS7003;68414;53.946;27.634;2023-04-23T03:09:53;38.483334;34.299999;23.950001
77516;PMS7003;68414;53.946;27.634;2023-04-23T03:10:53;41.066666;35.883335;23.733334
77516;PMS7003;68414;53.946;27.634;2023-04-23T03:11:53;40.049999;35.200001;23.983334
77516;PMS7003;68414;53.946;27.634;2023-04-23T03:12:53;39.700001;35.116665;24.350000
77516;PMS7003;68414;53.946;27.634;2023-04-23T03:13:53;40.883335;35.099998;23.700001
77516;PMS7003;68414;53.946;27.634;2023-04-23T03:14:53;38.950001;32.933334;22.166666
77516;PMS7003;68414;53.946;27.634;2023-04-23T03:15:53;39.750000;33.966667;22.950001
77516;PMS7003;68414;53.946;27.634;2023-04-23T03:16:53;37.016666;32.683334;22.683332
77516;PMS7003;68414;53.946;27.634;2023-04-23T03:17:53;39.450001;34.083332;23.533333
77516;PMS7003;68414;53.946;27.634;2023-04-23T03:18:53;40.066666;34.366665;23.350000
77516;PMS7003;68414;53.946;27.634;2023-04-23T03:19:53;38.250000;32.733334;22.566668
77516;PMS7003;68414;53.946;27.634;2023-04-23T03:20:53;38.150002;32.983334;22.500000
77516;PMS7003;68414;53.946;27.634;2023-04-23T03:21:53;40.766666;35.016666;24.216667
77516;PMS7003;68414;53.946;27.634;2023-04-23T03:22:53;40.616665;35.049999;24.316668
77516;PMS7003;68414;53.946;27.634;2023-04-23T03:23:53;42.133335;36.083332;24.000000
77516;PMS7003;68414;53.946;27.634;2023-04-23T03:24:53;42.316666;35.849998;23.750000
77516;PMS7003;68414;53.946;27.634;2023-04-23T03:25:53;41.316666;35.500000;24.216667
77516;PMS7003;68414;53.946;27.634;2023-04-23T03:26:53;38.983334;34.466667;22.566668
77516;PMS7003;68414;53.946;27.634;2023-04-23T03:27:53;37.333332;32.799999;22.799999
77516;PMS7003;68414;53.946;27.634;2023-04-23T03:28:53;42.799999;35.883335;23.700001
77516;PMS7003;68414;53.946;27.634;2023-04-23T03:29:53;40.383335;34.983334;23.200001
77516;PMS7003;68414;53.946;27.634;2023-04-23T03:30:53;36.966667;32.866665;22.900000
77516;PMS7003;68414;53.946;27.634;2023-04-23T03:31:53;39.500000;34.016666;22.966667
77516;PMS7003;68414;53.946;27.634;2023-04-23T03:32:55;37.566666;33.983334;23.166666
77516;PMS7003;68414;53.946;27.634;2023-04-23T03:33:53;37.049999;33.166668;22.466667
77516;PMS7003;68414;53.946;27.634;2023-04-23T03:34:53;40.400002;35.583332;23.733334
77516;PMS7003;68414;53.946;27.634;2023-04-23T03:35:53;35.799999;32.833332;22.683332
77516;PMS7003;68414;53.946;27.634;2023-04-23T03:36:53;39.683334;35.033333;23.866667
77516;PMS7003;68414;53.946;27.634;2023-04-23T03:37:53;39.633335;33.750000;23.900000
77516;PMS7003;68414;53.946;27.634;2023-04-23T03:38:53;41.333332;35.450001;23.299999
77516;PMS7003;68414;53.946;27.634;2023-04-23T03:39:53;44.766666;36.733334;24.233334
77516;PMS7003;68414;53.946;27.634;2023-04-23T03:40:53;37.666668;33.349998;22.700001
77516;PMS7003;68414;53.946;27.634;2023-04-23T03:41:53;37.516666;33.333332;22.883333
77516;PMS7003;68414;53.946;27.634;2023-04-23T03:42:53;37.900002;33.599998;22.316668
77516;PMS7003;68414;53.946;27.634;2023-04-23T03:43:53;36.166668;32.833332;22.950001
77516;PMS7003;68414;53.946;27.634;2023-04-23T03:44:53;39.700001;34.616665;24.366667
77516;PMS7003;68414;53.946;27.634;2023-04-23T03:45:53;42.799999;36.083332;24.266666
77516;PMS7003;68414;53.946;27.634;2023-04-23T03:46:53;39.766666;34.650002;23.566668
77516;PMS7003;68414;53.946;27.634;2023-04-23T03:47:53;41.166668;34.533333;23.983334
77516;PMS7003;68414;53.946;27.634;2023-04-23T03:48:53;43.799999;36.250000;24.466667
77516;PMS7003;68414;53.946;27.634;2023-04-23T03:49:53;42.766666;36.116665;24.799999
77516;PMS7003;68414;53.946;27.634;2023-04-23T03:50:53;42.166668;35.883335;24.000000
77516;PMS7003;68414;53.946;27.634;2023-04-23T03:51:53;40.849998;35.049999;23.283333
77516;PMS7003;68414;53.946;27.634;2023-04-23T03:52:53;39.683334;34.150002;23.716667
77516;PMS7003;68414;53.946;27.634;2023-04-23T03:53:53;44.083332;37.766666;24.883333
77516;PMS7003;68414;53.946;27.634;2023-04-23T03:54:53;41.216667;35.283333;23.950001
77516;PMS7003;68414;53.946;27.634;2023-04-23T03:55:53;40.183334;34.150002;22.799999
77516;PMS7003;68414;53.946;27.634;2023-04-23T03:56:53;38.983334;34.466667;23.016666
77516;PMS7003;68414;53.946;27.634;2023-04-23T03:57:53;38.916668;34.383335;22.516666
77516;PMS7003;68414;53.946;27.634;2023-04-23T03:58:53;38.066666;33.516666;22.083334
77516;PMS7003;68414;53.946;27.634;2023-04-23T03:59:53;40.233334;34.599998;22.783333
77516;PMS7003;68414;53.946;27.634;2023-04-23T04:00:53;38.299999;33.566666;22.933332
77516;PMS7003;68414;53.946;27.634;2023-04-23T04:01:53;37.849998;33.349998;22.750000
77516;PMS7003;68414;53.946;27.634;2023-04-23T04:02:53;39.583332;33.150002;22.633333
77516;PMS7003;68414;53.946;27.634;2023-04-23T04:03:53;39.633335;34.383335;22.750000
77516;PMS7003;68414;53.946;27.634;2023-04-23T04:04:53;37.150002;33.283333;22.633333
77516;PMS7003;68414;53.946;27.634;2023-04-23T04:05:53;41.000000;34.650002;23.450001
77516;PMS7003;68414;53.946;27.634;2023-04-23T04:06:53;40.816666;34.983334;23.216667
77516;PMS7003;68414;53.946;27.634;2023-04-23T04:07:53;40.983334;35.533333;23.366667
77516;PMS7003;68414;53.946;27.634;2023-04-23T04:08:53;39.233334;33.966667;23.049999
77516;PMS7003;68414;53.946;27.634;2023-04-23T04:09:53;37.966667;33.549999;22.683332
77516;PMS7003;68414;53.946;27.634;2023-04-23T04:10:53;40.483334;35.066666;23.299999
77516;PMS7003;68414;53.946;27.634;2023-04-23T04:11:53;41.299999;35.066666;24.049999
77516;PMS7003;68414;53.946;27.634;2023-04-23T04:12:53;44.183334;37.483334;25.083334
77516;PMS7003;68414;53.946;27.634;2023-04-23T04:13:53;40.616665;35.066666;24.350000
77516;PMS7003;68414;53.946;27.634;2023-04-23T04:14:53;39.599998;35.150002;24.000000
77516;PMS7003;68414;53.946;27.634;2023-04-23T04:15:53;40.750000;35.650002;23.216667
77516;PMS7003;68414;53.946;27.634;2023-04-23T04:16:53;41.283333;35.866665;23.866667
77516;PMS7003;68414;53.946;27.634;2023-04-23T04:17:53;40.166668;34.566666;22.950001
77516;PMS7003;68414;53.946;27.634;2023-04-23T04:18:53;37.900002;34.233334;22.733334
77516;PMS7003;68414;53.946;27.634;2023-04-23T04:19:53;38.683334;34.183334;23.049999
77516;PMS7003;68414;53.946;27.634;2023-04-23T04:20:53;43.116665;35.716667;24.049999
77516;PMS7003;68414;53.946;27.634;2023-04-23T04:21:53;39.966667;34.666668;23.416666
77516;PMS7003;68414;53.946;27.634;2023-04-23T04:22:53;42.700001;35.683334;24.116667
77516;PMS7003;68414;53.946;27.634;2023-04-23T04:23:53;46.283333;38.750000;26.049999
77516;PMS7003;68414;53.946;27.634;2023-04-23T04:24:53;47.166668;39.916668;27.116667
77516;PMS7003;68414;53.946;27.634;2023-04-23T04:25:53;47.233334;39.466667;26.316668
77516;PMS7003;68414;53.946;27.634;2023-04-23T04:26:53;45.950001;38.049999;24.650000
77516;PMS7003;68414;53.946;27.634;2023-04-23T04:27:53;43.433334;36.783333;24.516666
77516;PMS7003;68414;53.946;27.634;2023-04-23T04:28:53;43.200001;36.000000;23.983334
77516;PMS7003;68414;53.946;27.634;2023-04-23T04:29:53;41.150002;35.833332;24.200001
77516;PMS7003;68414;53.946;27.634;2023-04-23T04:30:53;41.166668;35.816666;23.933332
77516;PMS7003;68414;53.946;27.634;2023-04-23T04:31:53;41.483334;35.650002;23.866667
77516;PMS7003;68414;53.946;27.634;2023-04-23T04:32:53;38.583332;34.650002;24.250000
77516;PMS7003;68414;53.946;27.634;2023-04-23T04:33:55;41.916668;35.483334;24.450001
77516;PMS7003;68414;53.946;27.634;2023-04-23T04:34:53;41.900002;35.283333;23.299999
77516;PMS7003;68414;53.946;27.634;2023-04-23T04:35:53;40.966667;35.183334;23.850000
77516;PMS7003;68414;53.946;27.634;2023-04-23T04:36:53;41.116665;35.716667;23.566668
77516;PMS7003;68414;53.946;27.634;2023-04-23T04:37:53;40.283333;34.849998;23.049999
77516;PMS7003;68414;53.946;27.634;2023-04-23T04:38:53;44.000000;36.166668;23.750000
77516;PMS7003;68414;53.946;27.634;2023-04-23T04:39:53;39.316666;34.616665;23.250000
77516;PMS7003;68414;53.946;27.634;2023-04-23T04:40:54;42.133335;35.966667;24.200001
77516;PMS7003;68414;53.946;27.634;2023-04-23T04:41:53;41.716667;35.266666;24.583334
77516;PMS7003;68414;53.946;27.634;2023-04-23T04:42:53;42.783333;36.200001;24.799999
77516;PMS7003;68414;53.946;27.634;2023-04-23T04:43:53;47.349998;39.516666;27.100000
77516;PMS7003;68414;53.946;27.634;2023-04-23T04:44:53;47.700001;39.533333;26.733334
77516;PMS7003;68414;53.946;27.634;2023-04-23T04:45:53;47.733334;40.316666;26.549999
77516;PMS7003;68414;53.946;27.634;2023-04-23T04:46:53;45.966667;39.400002;26.150000